sensor_id;sensor_type;location;lat;lon;timestamp;temperature;humidity
12588;DHT22;6359;51.450;7.346;2022-09-21T00:01:24;5.60;99.90
12588;DHT22;6359;51.450;7.346;2022-09-21T00:03:52;5.50;99.90
12588;DHT22;6359;51.450;7.346;2022-09-21T00:06:20;5.50;99.90
12588;DHT22;6359;51.450;7.346;2022-09-21T00:08:49;5.50;99.90
12588;DHT22;6359;51.450;7.346;2022-09-21T00:11:19;5.40;99.90
12588;DHT22;6359;51.450;7.346;2022-09-21T00:13:46;5.30;99.90
12588;DHT22;6359;51.450;7.346;2022-09-21T00:16:14;5.20;99.90
12588;DHT22;6359;51.450;7.346;2022-09-21T00:18:41;5.20;99.90
12588;DHT22;6359;51.450;7.346;2022-09-21T00:21:11;5.10;99.90
12588;DHT22;6359;51.450;7.346;2022-09-21T00:23:39;5.10;99.90
12588;DHT22;6359;51.450;7.346;2022-09-21T00:26:09;5.00;99.90
12588;DHT22;6359;51.450;7.346;2022-09-21T00:28:37;5.00;99.90
12588;DHT22;6359;51.450;7.346;2022-09-21T00:31:07;5.00;99.90
12588;DHT22;6359;51.450;7.346;2022-09-21T00:33:34;5.00;99.90
12588;DHT22;6359;51.450;7.346;2022-09-21T00:36:02;5.00;99.90
12588;DHT22;6359;51.450;7.346;2022-09-21T00:38:29;5.00;99.90
12588;DHT22;6359;51.450;7.346;2022-09-21T00:40:56;5.10;99.90
12588;DHT22;6359;51.450;7.346;2022-09-21T00:43:25;5.10;99.90
12588;DHT22;6359;51.450;7.346;2022-09-21T00:45:56;5.00;99.90
12588;DHT22;6359;51.450;7.346;2022-09-21T00:48:24;4.90;99.90
12588;DHT22;6359;51.450;7.346;2022-09-21T00:50:53;4.90;99.90
12588;DHT22;6359;51.450;7.346;2022-09-21T00:53:21;4.90;99.90
12588;DHT22;6359;51.450;7.346;2022-09-21T00:55:52;4.80;99.90
12588;DHT22;6359;51.450;7.346;2022-09-21T00:58:26;4.80;99.90
12588;DHT22;6359;51.450;7.346;2022-09-21T01:00:56;4.70;99.90
12588;DHT22;6359;51.450;7.346;2022-09-21T01:03:24;4.70;99.90
12588;DHT22;6359;51.450;7.346;2022-09-21T01:05:51;4.70;99.90
12588;DHT22;6359;51.450;7.346;2022-09-21T01:08:19;4.60;99.90
12588;DHT22;6359;51.450;7.346;2022-09-21T01:11:03;4.60;99.90
12588;DHT22;6359;51.450;7.346;2022-09-21T01:13:43;4.60;99.90
12588;DHT22;6359;51.450;7.346;2022-09-21T01:16:14;4.60;99.90
12588;DHT22;6359;51.450;7.346;2022-09-21T01:18:46;4.50;99.90
12588;DHT22;6359;51.450;7.346;2022-09-21T01:21:19;4.50;99.90
12588;DHT22;6359;51.450;7.346;2022-09-21T01:24:18;4.50;99.90
12588;DHT22;6359;51.450;7.346;2022-09-21T01:27:28;4.40;99.90
12588;DHT22;6359;51.450;7.346;2022-09-21T01:30:01;4.50;99.90
12588;DHT22;6359;51.450;7.346;2022-09-21T01:32:33;4.50;99.90
12588;DHT22;6359;51.450;7.346;2022-09-21T01:35:05;4.50;99.90
12588;DHT22;6359;51.450;7.346;2022-09-21T01:37:39;4.50;99.90
12588;DHT22;6359;51.450;7.346;2022-09-21T01:40:09;4.50;99.90
12588;DHT22;6359;51.450;7.346;2022-09-21T01:42:38;4.40;99.90
12588;DHT22;6359;51.450;7.346;2022-09-21T01:45:09;4.40;99.90
12588;DHT22;6359;51.450;7.346;2022-09-21T01:47:39;4.40;99.90
12588;DHT22;6359;51.450;7.346;2022-09-21T01:50:09;4.30;99.90
12588;DHT22;6359;51.450;7.346;2022-09-21T01:52:39;4.30;99.90
12588;DHT22;6359;51.450;7.346;2022-09-21T01:55:11;4.30;99.90
12588;DHT22;6359;51.450;7.346;2022-09-21T01:57:43;4.30;99.90
12588;DHT22;6359;51.450;7.346;2022-09-21T02:00:15;4.30;99.90
12588;DHT22;6359;51.450;7.346;2022-09-21T02:02:46;4.30;99.90
12588;DHT22;6359;51.450;7.346;2022-09-21T02:05:17;4.30;99.90
12588;DHT22;6359;51.450;7.346;2022-09-21T02:07:46;4.30;99.90
12588;DHT22;6359;51.450;7.346;2022-09-21T02:10:17;4.30;99.90
12588;DHT22;6359;51.450;7.346;2022-09-21T02:12:46;4.30;99.90
12588;DHT22;6359;51.450;7.346;2022-09-21T02:15:15;4.20;99.90
12588;DHT22;6359;51.450;7.346;2022-09-21T02:17:49;4.20;99.90
12588;DHT22;6359;51.450;7.346;2022-09-21T02:20:24;4.20;99.90
12588;DHT22;6359;51.450;7.346;2022-09-21T02:23:04;4.20;99.90
12588;DHT22;6359;51.450;7.346;2022-09-21T02:25:40;4.20;99.90
12588;DHT22;6359;51.450;7.346;2022-09-21T02:28:18;4.30;99.90
12588;DHT22;6359;51.450;7.346;2022-09-21T02:30:52;4.20;99.90
12588;DHT22;6359;51.450;7.346;2022-09-21T02:33:25;4.10;99.90
12588;DHT22;6359;51.450;7.346;2022-09-21T02:35:58;4.10;99.90
12588;DHT22;6359;51.450;7.346;2022-09-21T02:38:34;4.10;99.90
12588;DHT22;6359;51.450;7.346;2022-09-21T02:41:06;4.10;99.90
12588;DHT22;6359;51.450;7.346;2022-09-21T02:43:38;4.00;99.90
12588;DHT22;6359;51.450;7.346;2022-09-21T02:46:10;4.00;99.90
12588;DHT22;6359;51.450;7.346;2022-09-21T02:48:43;4.00;99.90
12588;DHT22;6359;51.450;7.346;2022-09-21T02:51:14;4.00;99.90
12588;DHT22;6359;51.450;7.346;2022-09-21T02:53:44;3.90;99.90
12588;DHT22;6359;51.450;7.346;2022-09-21T02:56:13;3.90;99.90
12588;DHT22;6359;51.450;7.346;2022-09-21T02:58:44;3.90;99.90
12588;DHT22;6359;51.450;7.346;2022-09-21T03:01:14;3.90;99.90
12588;DHT22;6359;51.450;7.346;2022-09-21T03:03:42;3.90;99.90
12588;DHT22;6359;51.450;7.346;2022-09-21T03:06:09;3.90;99.90
12588;DHT22;6359;51.450;7.346;2022-09-21T03:08:36;3.90;99.90
12588;DHT22;6359;51.450;7.346;2022-09-21T03:11:03;3.90;99.90
12588;DHT22;6359;51.450;7.346;2022-09-21T03:13:30;3.80;99.90
12588;DHT22;6359;51.450;7.346;2022-09-21T03:16:01;3.80;99.90
12588;DHT22;6359;51.450;7.346;2022-09-21T03:18:30;3.90;99.90
12588;DHT22;6359;51.450;7.346;2022-09-21T03:20:57;3.90;99.90
12588;DHT22;6359;51.450;7.346;2022-09-21T03:23:24;3.90;99.90
12588;DHT22;6359;51.450;7.346;2022-09-21T03:25:52;3.80;99.90
12588;DHT22;6359;51.450;7.346;2022-09-21T03:28:20;3.80;99.90
12588;DHT22;6359;51.450;7.346;2022-09-21T03:30:47;3.70;99.90
12588;DHT22;6359;51.450;7.346;2022-09-21T03:33:14;3.70;99.90
12588;DHT22;6359;51.450;7.346;2022-09-21T03:35:43;3.70;99.90
12588;DHT22;6359;51.450;7.346;2022-09-21T03:38:10;3.80;99.90
12588;DHT22;6359;51.450;7.346;2022-09-21T03:40:37;3.70;99.90
12588;DHT22;6359;51.450;7.346;2022-09-21T03:43:04;3.70;99.90
12588;DHT22;6359;51.450;7.346;2022-09-21T03:45:31;3.70;99.90
12588;DHT22;6359;51.450;7.346;2022-09-21T03:47:58;3.70;99.90
12588;DHT22;6359;51.450;7.346;2022-09-21T03:50:26;3.70;99.90
12588;DHT22;6359;51.450;7.346;2022-09-21T03:52:55;3.70;99.90
12588;DHT22;6359;51.450;7.346;2022-09-21T03:55:22;3.60;99.90
12588;DHT22;6359;51.450;7.346;2022-09-21T03:57:50;3.60;99.90
12588;DHT22;6359;51.450;7.346;2022-09-21T04:00:17;3.60;99.90
12588;DHT22;6359;51.450;7.346;2022-09-21T04:02:44;3.60;99.90
12588;DHT22;6359;51.450;7.346;2022-09-21T04:05:12;3.60;99.90
12588;DHT22;6359;51.450;7.346;2022-09-21T04:07:41;3.60;99.90
12588;DHT22;6359;51.450;7.346;2022-09-21T04:10:13;3.60;99.90
12588;DHT22;6359;51.450;7.346;2022-09-21T04:12:41;3.60;99.90
12588;DHT22;6359;51.450;7.346;2022-09-21T04:15:09;3.70;99.90
12588;DHT22;6359;51.450;7.346;2022-09-21T04:17:36;3.70;99.90
12588;DHT22;6359;51.450;7.346;2022-09-21T04:20:04;3.70;99.90
12588;DHT22;6359;51.450;7.346;2022-09-21T04:22:32;3.70;99.90
12588;DHT22;6359;51.450;7.346;2022-09-21T04:24:59;3.60;99.90
12588;DHT22;6359;51.450;7.346;2022-09-21T04:27:27;3.60;99.90
12588;DHT22;6359;51.450;7.346;2022-09-21T04:29:54;3.50;99.90
12588;DHT22;6359;51.450;7.346;2022-09-21T04:32:21;3.50;99.90
12588;DHT22;6359;51.450;7.346;2022-09-21T04:34:48;3.50;99.90
12588;DHT22;6359;51.450;7.346;2022-09-21T04:37:15;3.40;99.90
12588;DHT22;6359;51.450;7.346;2022-09-21T04:39:43;3.40;99.90
12588;DHT22;6359;51.450;7.346;2022-09-21T04:42:10;3.30;99.90
12588;DHT22;6359;51.450;7.346;2022-09-21T04:44:39;3.30;99.90
12588;DHT22;6359;51.450;7.346;2022-09-21T04:47:05;3.30;99.90
12588;DHT22;6359;51.450;7.346;2022-09-21T04:49:32;3.30;99.90
12588;DHT22;6359;51.450;7.346;2022-09-21T04:52:00;3.30;99.90
12588;DHT22;6359;51.450;7.346;2022-09-21T04:54:27;3.30;99.90
12588;DHT22;6359;51.450;7.346;2022-09-21T04:56:54;3.30;99.90
12588;DHT22;6359;51.450;7.346;2022-09-21T04:59:22;3.30;99.90
12588;DHT22;6359;51.450;7.346;2022-09-21T05:01:50;3.50;99.90
12588;DHT22;6359;51.450;7.346;2022-09-21T05:04:17;3.40;99.90
12588;DHT22;6359;51.450;7.346;2022-09-21T05:06:43;3.40;99.90
12588;DHT22;6359;51.450;7.346;2022-09-21T05:09:10;3.40;99.90
12588;DHT22;6359;51.450;7.346;2022-09-21T05:11:54;3.40;99.90
12588;DHT22;6359;51.450;7.346;2022-09-21T05:14:21;3.40;99.90
12588;DHT22;6359;51.450;7.346;2022-09-21T05:16:49;3.40;99.90
12588;DHT22;6359;51.450;7.346;2022-09-21T05:19:16;3.50;99.90
12588;DHT22;6359;51.450;7.346;2022-09-21T05:21:43;3.60;99.90
12588;DHT22;6359;51.450;7.346;2022-09-21T05:24:11;3.60;99.90
12588;DHT22;6359;51.450;7.346;2022-09-21T05:26:37;3.60;99.90
12588;DHT22;6359;51.450;7.346;2022-09-21T05:29:05;3.60;99.90
12588;DHT22;6359;51.450;7.346;2022-09-21T05:31:42;3.60;99.90
12588;DHT22;6359;51.450;7.346;2022-09-21T05:34:25;3.70;99.90
12588;DHT22;6359;51.450;7.346;2022-09-21T05:36:59;3.80;99.90
12588;DHT22;6359;51.450;7.346;2022-09-21T05:39:28;3.80;99.90
12588;DHT22;6359;51.450;7.346;2022-09-21T05:41:55;3.90;99.90
12588;DHT22;6359;51.450;7.346;2022-09-21T05:44:22;4.00;99.90
12588;DHT22;6359;51.450;7.346;2022-09-21T05:46:54;4.10;99.90
12588;DHT22;6359;51.450;7.346;2022-09-21T05:49:33;4.20;99.90
12588;DHT22;6359;51.450;7.346;2022-09-21T05:52:08;4.30;99.90
12588;DHT22;6359;51.450;7.346;2022-09-21T05:54:47;4.40;99.90
12588;DHT22;6359;51.450;7.346;2022-09-21T05:57:23;4.50;99.90
12588;DHT22;6359;51.450;7.346;2022-09-21T06:00:01;4.40;99.90
12588;DHT22;6359;51.450;7.346;2022-09-21T06:02:45;4.50;99.90
12588;DHT22;6359;51.450;7.346;2022-09-21T06:05:16;4.50;99.90
12588;DHT22;6359;51.450;7.346;2022-09-21T06:07:43;4.50;99.90
12588;DHT22;6359;51.450;7.346;2022-09-21T06:10:11;4.50;99.90
12588;DHT22;6359;51.450;7.346;2022-09-21T06:12:39;4.50;99.90
12588;DHT22;6359;51.450;7.346;2022-09-21T06:15:09;4.60;99.90
12588;DHT22;6359;51.450;7.346;2022-09-21T06:17:37;4.70;99.90
12588;DHT22;6359;51.450;7.346;2022-09-21T06:20:04;4.80;99.90
12588;DHT22;6359;51.450;7.346;2022-09-21T06:22:33;4.80;99.90
12588;DHT22;6359;51.450;7.346;2022-09-21T06:25:00;4.90;99.90
12588;DHT22;6359;51.450;7.346;2022-09-21T06:27:27;5.00;99.90
12588;DHT22;6359;51.450;7.346;2022-09-21T06:29:54;5.20;99.90
12588;DHT22;6359;51.450;7.346;2022-09-21T06:32:21;5.30;99.90
12588;DHT22;6359;51.450;7.346;2022-09-21T06:34:48;5.40;99.90
12588;DHT22;6359;51.450;7.346;2022-09-21T06:37:15;5.60;99.90
12588;DHT22;6359;51.450;7.346;2022-09-21T06:39:44;5.70;99.90
12588;DHT22;6359;51.450;7.346;2022-09-21T06:42:11;5.90;99.90
12588;DHT22;6359;51.450;7.346;2022-09-21T06:44:38;6.00;99.90
12588;DHT22;6359;51.450;7.346;2022-09-21T06:47:05;6.20;99.90
12588;DHT22;6359;51.450;7.346;2022-09-21T06:49:32;6.40;99.90
12588;DHT22;6359;51.450;7.346;2022-09-21T06:51:59;6.50;99.90
12588;DHT22;6359;51.450;7.346;2022-09-21T06:54:26;6.70;99.90
12588;DHT22;6359;51.450;7.346;2022-09-21T06:56:54;6.90;99.90
12588;DHT22;6359;51.450;7.346;2022-09-21T06:59:21;7.00;99.90
12588;DHT22;6359;51.450;7.346;2022-09-21T07:01:48;7.10;99.90
12588;DHT22;6359;51.450;7.346;2022-09-21T07:04:15;7.90;99.90
12588;DHT22;6359;51.450;7.346;2022-09-21T07:06:42;9.90;99.90
12588;DHT22;6359;51.450;7.346;2022-09-21T07:09:10;12.30;99.90
12588;DHT22;6359;51.450;7.346;2022-09-21T07:11:36;14.20;99.90
12588;DHT22;6359;51.450;7.346;2022-09-21T07:14:07;15.80;99.90
12588;DHT22;6359;51.450;7.346;2022-09-21T07:16:34;16.80;99.90
12588;DHT22;6359;51.450;7.346;2022-09-21T07:19:02;17.80;99.90
12588;DHT22;6359;51.450;7.346;2022-09-21T07:21:30;17.50;99.90
12588;DHT22;6359;51.450;7.346;2022-09-21T07:23:58;18.60;99.90
12588;DHT22;6359;51.450;7.346;2022-09-21T07:26:25;18.80;99.90
12588;DHT22;6359;51.450;7.346;2022-09-21T07:28:53;19.70;99.90
12588;DHT22;6359;51.450;7.346;2022-09-21T07:31:22;19.60;99.90
12588;DHT22;6359;51.450;7.346;2022-09-21T07:33:49;20.00;99.90
12588;DHT22;6359;51.450;7.346;2022-09-21T07:36:16;20.00;99.90
12588;DHT22;6359;51.450;7.346;2022-09-21T07:38:43;20.40;99.90
12588;DHT22;6359;51.450;7.346;2022-09-21T07:41:11;19.80;99.90
12588;DHT22;6359;51.450;7.346;2022-09-21T07:43:39;19.70;99.90
12588;DHT22;6359;51.450;7.346;2022-09-21T07:46:06;19.90;99.90
12588;DHT22;6359;51.450;7.346;2022-09-21T07:48:35;20.20;99.90
12588;DHT22;6359;51.450;7.346;2022-09-21T07:51:03;21.00;99.90
12588;DHT22;6359;51.450;7.346;2022-09-21T07:53:31;21.00;99.90
12588;DHT22;6359;51.450;7.346;2022-09-21T07:56:02;20.90;99.90
12588;DHT22;6359;51.450;7.346;2022-09-21T07:58:29;20.80;99.90
12588;DHT22;6359;51.450;7.346;2022-09-21T08:01:13;20.40;99.90
12588;DHT22;6359;51.450;7.346;2022-09-21T08:03:42;20.40;99.90
12588;DHT22;6359;51.450;7.346;2022-09-21T08:06:09;20.80;99.90
12588;DHT22;6359;51.450;7.346;2022-09-21T08:08:36;21.10;99.90
12588;DHT22;6359;51.450;7.346;2022-09-21T08:11:05;22.00;99.90
12588;DHT22;6359;51.450;7.346;2022-09-21T08:13:32;22.20;99.90
12588;DHT22;6359;51.450;7.346;2022-09-21T08:15:59;22.30;99.90
12588;DHT22;6359;51.450;7.346;2022-09-21T08:18:26;22.40;99.90
12588;DHT22;6359;51.450;7.346;2022-09-21T08:20:55;22.90;99.90
12588;DHT22;6359;51.450;7.346;2022-09-21T08:23:22;23.10;99.90
12588;DHT22;6359;51.450;7.346;2022-09-21T08:25:50;23.60;99.90
12588;DHT22;6359;51.450;7.346;2022-09-21T08:28:17;23.10;99.90
12588;DHT22;6359;51.450;7.346;2022-09-21T08:30:44;23.20;99.90
12588;DHT22;6359;51.450;7.346;2022-09-21T08:33:11;23.30;99.90
12588;DHT22;6359;51.450;7.346;2022-09-21T08:35:38;23.20;99.90
12588;DHT22;6359;51.450;7.346;2022-09-21T08:38:06;23.40;99.90
12588;DHT22;6359;51.450;7.346;2022-09-21T08:40:33;23.20;99.90
12588;DHT22;6359;51.450;7.346;2022-09-21T08:43:03;22.80;99.90
12588;DHT22;6359;51.450;7.346;2022-09-21T08:45:35;23.00;99.90
12588;DHT22;6359;51.450;7.346;2022-09-21T08:48:07;23.50;99.90
12588;DHT22;6359;51.450;7.346;2022-09-21T08:50:40;23.80;99.90
12588;DHT22;6359;51.450;7.346;2022-09-21T08:53:12;24.80;99.90
12588;DHT22;6359;51.450;7.346;2022-09-21T08:55:40;24.60;99.90
12588;DHT22;6359;51.450;7.346;2022-09-21T08:58:19;25.60;97.00
12588;DHT22;6359;51.450;7.346;2022-09-21T09:00:48;26.50;95.30
12588;DHT22;6359;51.450;7.346;2022-09-21T09:03:38;27.60;93.60
12588;DHT22;6359;51.450;7.346;2022-09-21T09:06:11;27.70;92.00
12588;DHT22;6359;51.450;7.346;2022-09-21T09:08:57;27.10;93.00
12588;DHT22;6359;51.450;7.346;2022-09-21T09:11:36;26.30;94.60
12588;DHT22;6359;51.450;7.346;2022-09-21T09:14:19;28.20;89.30
12588;DHT22;6359;51.450;7.346;2022-09-21T09:16:57;27.20;91.50
12588;DHT22;6359;51.450;7.346;2022-09-21T09:19:39;26.00;94.10
12588;DHT22;6359;51.450;7.346;2022-09-21T09:22:11;27.20;90.60
12588;DHT22;6359;51.450;7.346;2022-09-21T09:24:45;26.90;90.90
12588;DHT22;6359;51.450;7.346;2022-09-21T09:27:16;26.70;91.00
12588;DHT22;6359;51.450;7.346;2022-09-21T09:29:49;26.40;89.30
12588;DHT22;6359;51.450;7.346;2022-09-21T09:32:24;25.40;92.00
12588;DHT22;6359;51.450;7.346;2022-09-21T09:35:04;25.30;91.10
12588;DHT22;6359;51.450;7.346;2022-09-21T09:37:35;26.00;90.80
12588;DHT22;6359;51.450;7.346;2022-09-21T09:40:10;28.30;84.30
12588;DHT22;6359;51.450;7.346;2022-09-21T09:42:50;27.60;87.40
12588;DHT22;6359;51.450;7.346;2022-09-21T09:45:30;28.00;80.90
12588;DHT22;6359;51.450;7.346;2022-09-21T09:51:09;26.50;83.00
12588;DHT22;6359;51.450;7.346;2022-09-21T09:53:37;26.80;79.10
12588;DHT22;6359;51.450;7.346;2022-09-21T09:56:08;26.80;81.00
12588;DHT22;6359;51.450;7.346;2022-09-21T09:58:40;26.60;77.30
12588;DHT22;6359;51.450;7.346;2022-09-21T10:01:35;25.80;76.30
12588;DHT22;6359;51.450;7.346;2022-09-21T10:04:07;21.90;84.00
12588;DHT22;6359;51.450;7.346;2022-09-21T10:06:35;20.00;90.90
12588;DHT22;6359;51.450;7.346;2022-09-21T10:09:17;19.20;93.00
12588;DHT22;6359;51.450;7.346;2022-09-21T10:11:46;19.10;97.70
12588;DHT22;6359;51.450;7.346;2022-09-21T10:14:17;20.70;95.30
12588;DHT22;6359;51.450;7.346;2022-09-21T10:16:44;22.10;94.00
12588;DHT22;6359;51.450;7.346;2022-09-21T10:19:17;22.40;93.80
12588;DHT22;6359;51.450;7.346;2022-09-21T10:21:45;23.40;90.80
12588;DHT22;6359;51.450;7.346;2022-09-21T10:24:18;24.80;87.40
12588;DHT22;6359;51.450;7.346;2022-09-21T10:26:49;25.40;86.70
12588;DHT22;6359;51.450;7.346;2022-09-21T10:29:29;24.30;88.00
12588;DHT22;6359;51.450;7.346;2022-09-21T10:31:58;22.00;89.30
12588;DHT22;6359;51.450;7.346;2022-09-21T10:34:26;20.40;92.60
12588;DHT22;6359;51.450;7.346;2022-09-21T10:36:56;19.50;97.20
12588;DHT22;6359;51.450;7.346;2022-09-21T10:39:28;19.60;96.20
12588;DHT22;6359;51.450;7.346;2022-09-21T10:41:59;19.20;96.70
12588;DHT22;6359;51.450;7.346;2022-09-21T10:44:33;18.80;97.70
12588;DHT22;6359;51.450;7.346;2022-09-21T10:47:19;18.50;98.40
12588;DHT22;6359;51.450;7.346;2022-09-21T10:49:49;18.40;99.40
12588;DHT22;6359;51.450;7.346;2022-09-21T10:52:17;18.70;98.20
12588;DHT22;6359;51.450;7.346;2022-09-21T10:54:48;19.00;98.00
12588;DHT22;6359;51.450;7.346;2022-09-21T10:57:20;18.80;98.00
12588;DHT22;6359;51.450;7.346;2022-09-21T10:59:48;18.40;97.50
12588;DHT22;6359;51.450;7.346;2022-09-21T11:02:30;18.30;99.80
12588;DHT22;6359;51.450;7.346;2022-09-21T11:05:05;18.10;99.90
12588;DHT22;6359;51.450;7.346;2022-09-21T11:07:38;18.40;99.30
12588;DHT22;6359;51.450;7.346;2022-09-21T11:10:12;18.90;99.90
12588;DHT22;6359;51.450;7.346;2022-09-21T11:12:51;18.50;99.90
12588;DHT22;6359;51.450;7.346;2022-09-21T11:15:35;17.90;99.90
12588;DHT22;6359;51.450;7.346;2022-09-21T11:18:08;17.60;99.90
12588;DHT22;6359;51.450;7.346;2022-09-21T11:20:42;17.70;99.90
12588;DHT22;6359;51.450;7.346;2022-09-21T11:23:20;17.60;99.90
12588;DHT22;6359;51.450;7.346;2022-09-21T11:25:54;17.20;99.90
12588;DHT22;6359;51.450;7.346;2022-09-21T11:28:29;17.30;99.90
12588;DHT22;6359;51.450;7.346;2022-09-21T11:31:30;17.20;99.60
12588;DHT22;6359;51.450;7.346;2022-09-21T11:34:15;18.10;99.20
12588;DHT22;6359;51.450;7.346;2022-09-21T11:36:52;18.30;99.50
12588;DHT22;6359;51.450;7.346;2022-09-21T11:39:27;18.10;99.50
12588;DHT22;6359;51.450;7.346;2022-09-21T11:42:12;17.90;99.90
12588;DHT22;6359;51.450;7.346;2022-09-21T11:44:51;17.60;99.90
12588;DHT22;6359;51.450;7.346;2022-09-21T11:47:38;17.20;99.90
12588;DHT22;6359;51.450;7.346;2022-09-21T11:50:27;17.00;99.90
12588;DHT22;6359;51.450;7.346;2022-09-21T11:53:07;16.70;99.90
12588;DHT22;6359;51.450;7.346;2022-09-21T11:55:51;16.80;99.90
12588;DHT22;6359;51.450;7.346;2022-09-21T11:58:25;17.00;99.90
12588;DHT22;6359;51.450;7.346;2022-09-21T12:01:02;17.40;99.90
12588;DHT22;6359;51.450;7.346;2022-09-21T12:03:52;17.60;99.90
12588;DHT22;6359;51.450;7.346;2022-09-21T12:06:37;17.30;99.90
12588;DHT22;6359;51.450;7.346;2022-09-21T12:09:41;17.30;99.90
12588;DHT22;6359;51.450;7.346;2022-09-21T12:12:13;17.70;99.90
12588;DHT22;6359;51.450;7.346;2022-09-21T12:14:52;17.80;99.90
12588;DHT22;6359;51.450;7.346;2022-09-21T12:17:27;17.70;99.90
12588;DHT22;6359;51.450;7.346;2022-09-21T12:20:04;17.80;99.90
12588;DHT22;6359;51.450;7.346;2022-09-21T12:22:36;17.60;99.90
12588;DHT22;6359;51.450;7.346;2022-09-21T12:25:11;17.70;99.90
12588;DHT22;6359;51.450;7.346;2022-09-21T12:27:45;18.30;99.90
12588;DHT22;6359;51.450;7.346;2022-09-21T12:30:15;18.90;99.90
12588;DHT22;6359;51.450;7.346;2022-09-21T12:32:54;19.40;99.90
12588;DHT22;6359;51.450;7.346;2022-09-21T12:35:27;19.70;99.90
12588;DHT22;6359;51.450;7.346;2022-09-21T12:38:00;19.90;99.90
12588;DHT22;6359;51.450;7.346;2022-09-21T12:40:35;19.80;99.90
12588;DHT22;6359;51.450;7.346;2022-09-21T12:43:18;20.00;99.90
12588;DHT22;6359;51.450;7.346;2022-09-21T12:45:51;20.00;99.90
12588;DHT22;6359;51.450;7.346;2022-09-21T12:48:27;19.80;99.90
12588;DHT22;6359;51.450;7.346;2022-09-21T12:50:57;20.00;99.90
12588;DHT22;6359;51.450;7.346;2022-09-21T12:53:28;20.30;98.30
12588;DHT22;6359;51.450;7.346;2022-09-21T12:56:03;20.00;96.20
12588;DHT22;6359;51.450;7.346;2022-09-21T12:58:49;19.50;99.40
12588;DHT22;6359;51.450;7.346;2022-09-21T13:01:26;19.30;97.10
12588;DHT22;6359;51.450;7.346;2022-09-21T13:04:08;19.60;98.30
12588;DHT22;6359;51.450;7.346;2022-09-21T13:09:43;18.80;99.30
12588;DHT22;6359;51.450;7.346;2022-09-21T13:12:16;18.30;98.90
12588;DHT22;6359;51.450;7.346;2022-09-21T13:14:46;17.90;99.90
12588;DHT22;6359;51.450;7.346;2022-09-21T13:17:20;17.70;99.90
12588;DHT22;6359;51.450;7.346;2022-09-21T13:20:01;17.50;99.90
12588;DHT22;6359;51.450;7.346;2022-09-21T13:22:30;17.30;99.90
12588;DHT22;6359;51.450;7.346;2022-09-21T13:25:01;17.20;99.90
12588;DHT22;6359;51.450;7.346;2022-09-21T13:27:55;17.20;99.90
12588;DHT22;6359;51.450;7.346;2022-09-21T13:30:34;17.20;99.90
12588;DHT22;6359;51.450;7.346;2022-09-21T13:33:03;17.20;99.90
12588;DHT22;6359;51.450;7.346;2022-09-21T13:35:59;17.10;99.90
12588;DHT22;6359;51.450;7.346;2022-09-21T13:38:30;16.90;99.90
12588;DHT22;6359;51.450;7.346;2022-09-21T13:41:00;17.20;99.90
12588;DHT22;6359;51.450;7.346;2022-09-21T13:44:02;17.60;99.90
12588;DHT22;6359;51.450;7.346;2022-09-21T13:46:55;18.00;99.90
12588;DHT22;6359;51.450;7.346;2022-09-21T13:49:32;18.50;99.90
12588;DHT22;6359;51.450;7.346;2022-09-21T13:52:03;18.70;99.90
12588;DHT22;6359;51.450;7.346;2022-09-21T13:54:36;18.90;99.90
12588;DHT22;6359;51.450;7.346;2022-09-21T13:57:19;19.00;99.70
12588;DHT22;6359;51.450;7.346;2022-09-21T14:00:03;18.90;99.50
12588;DHT22;6359;51.450;7.346;2022-09-21T14:02:33;19.10;98.80
12588;DHT22;6359;51.450;7.346;2022-09-21T14:05:05;19.10;97.60
12588;DHT22;6359;51.450;7.346;2022-09-21T14:07:34;19.10;98.30
12588;DHT22;6359;51.450;7.346;2022-09-21T14:10:07;19.10;99.00
12588;DHT22;6359;51.450;7.346;2022-09-21T14:12:40;19.20;98.80
12588;DHT22;6359;51.450;7.346;2022-09-21T14:15:31;19.20;97.40
12588;DHT22;6359;51.450;7.346;2022-09-21T14:18:33;18.50;99.60
12588;DHT22;6359;51.450;7.346;2022-09-21T14:21:17;18.50;99.80
12588;DHT22;6359;51.450;7.346;2022-09-21T14:27:02;18.80;99.90
12588;DHT22;6359;51.450;7.346;2022-09-21T14:29:41;19.10;99.00
12588;DHT22;6359;51.450;7.346;2022-09-21T14:32:15;19.20;98.10
12588;DHT22;6359;51.450;7.346;2022-09-21T14:34:46;19.10;99.30
12588;DHT22;6359;51.450;7.346;2022-09-21T14:37:24;19.20;99.70
12588;DHT22;6359;51.450;7.346;2022-09-21T14:39:53;19.20;97.30
12588;DHT22;6359;51.450;7.346;2022-09-21T14:42:25;19.30;96.80
12588;DHT22;6359;51.450;7.346;2022-09-21T14:44:55;19.20;97.00
12588;DHT22;6359;51.450;7.346;2022-09-21T14:47:35;18.40;96.90
12588;DHT22;6359;51.450;7.346;2022-09-21T14:50:24;18.20;96.80
12588;DHT22;6359;51.450;7.346;2022-09-21T14:53:18;18.50;97.20
12588;DHT22;6359;51.450;7.346;2022-09-21T14:56:28;18.60;98.10
12588;DHT22;6359;51.450;7.346;2022-09-21T14:59:07;18.60;95.50
12588;DHT22;6359;51.450;7.346;2022-09-21T15:01:40;18.70;94.90
12588;DHT22;6359;51.450;7.346;2022-09-21T15:04:30;18.70;94.70
12588;DHT22;6359;51.450;7.346;2022-09-21T15:07:09;18.60;95.60
12588;DHT22;6359;51.450;7.346;2022-09-21T15:10:14;18.60;94.60
12588;DHT22;6359;51.450;7.346;2022-09-21T15:13:09;18.40;94.90
12588;DHT22;6359;51.450;7.346;2022-09-21T15:15:43;18.10;96.00
12588;DHT22;6359;51.450;7.346;2022-09-21T15:18:14;18.10;96.20
12588;DHT22;6359;51.450;7.346;2022-09-21T15:20:54;18.10;96.60
12588;DHT22;6359;51.450;7.346;2022-09-21T15:23:24;18.30;96.20
12588;DHT22;6359;51.450;7.346;2022-09-21T15:25:55;18.40;95.60
12588;DHT22;6359;51.450;7.346;2022-09-21T15:28:24;18.40;95.20
12588;DHT22;6359;51.450;7.346;2022-09-21T15:30:55;18.30;95.00
12588;DHT22;6359;51.450;7.346;2022-09-21T15:33:23;18.10;95.00
12588;DHT22;6359;51.450;7.346;2022-09-21T15:35:50;18.10;95.20
12588;DHT22;6359;51.450;7.346;2022-09-21T15:38:27;18.10;94.60
12588;DHT22;6359;51.450;7.346;2022-09-21T15:40:54;18.10;95.70
12588;DHT22;6359;51.450;7.346;2022-09-21T15:43:21;18.10;95.80
12588;DHT22;6359;51.450;7.346;2022-09-21T15:45:51;18.00;97.50
12588;DHT22;6359;51.450;7.346;2022-09-21T15:48:22;17.80;98.00
12588;DHT22;6359;51.450;7.346;2022-09-21T15:50:52;17.80;98.40
12588;DHT22;6359;51.450;7.346;2022-09-21T15:53:24;17.80;99.00
12588;DHT22;6359;51.450;7.346;2022-09-21T15:55:51;17.80;99.30
12588;DHT22;6359;51.450;7.346;2022-09-21T15:58:30;17.70;98.30
12588;DHT22;6359;51.450;7.346;2022-09-21T16:01:00;17.50;98.40
12588;DHT22;6359;51.450;7.346;2022-09-21T16:03:29;17.50;98.60
12588;DHT22;6359;51.450;7.346;2022-09-21T16:05:56;17.40;99.70
12588;DHT22;6359;51.450;7.346;2022-09-21T16:08:29;17.30;99.90
12588;DHT22;6359;51.450;7.346;2022-09-21T16:11:13;17.20;99.90
12588;DHT22;6359;51.450;7.346;2022-09-21T16:13:41;17.10;99.90
12588;DHT22;6359;51.450;7.346;2022-09-21T16:16:25;17.10;99.90
12588;DHT22;6359;51.450;7.346;2022-09-21T16:18:55;17.10;99.90
12588;DHT22;6359;51.450;7.346;2022-09-21T16:21:25;17.00;99.90
12588;DHT22;6359;51.450;7.346;2022-09-21T16:23:55;16.90;99.90
12588;DHT22;6359;51.450;7.346;2022-09-21T16:26:26;16.90;99.90
12588;DHT22;6359;51.450;7.346;2022-09-21T16:29:17;16.80;99.90
12588;DHT22;6359;51.450;7.346;2022-09-21T16:31:45;16.60;99.90
12588;DHT22;6359;51.450;7.346;2022-09-21T16:34:38;16.40;99.90
12588;DHT22;6359;51.450;7.346;2022-09-21T16:37:21;16.30;99.90